sensor_id;sensor_type;location;lat;lon;timestamp;pressure;altitude;pressure_sealevel;temperature;humidity
74561;BME280;62979;55.720;37.606;2023-04-06T00:00:36;100439.72;;;10.55;49.48
74561;BME280;62979;55.720;37.606;2023-04-06T00:03:03;100431.94;;;10.50;49.55
74561;BME280;62979;55.720;37.606;2023-04-06T00:05:30;100435.34;;;10.56;49.52
74561;BME280;62979;55.720;37.606;2023-04-06T00:07:57;100437.16;;;10.54;49.52
74561;BME280;62979;55.720;37.606;2023-04-06T00:10:26;100432.78;;;10.54;49.43
74561;BME280;62979;55.720;37.606;2023-04-06T00:12:53;100431.06;;;10.50;49.46
74561;BME280;62979;55.720;37.606;2023-04-06T00:15:21;100431.09;;;10.48;49.73
74561;BME280;62979;55.720;37.606;2023-04-06T00:17:48;100441.56;;;10.47;49.75
74561;BME280;62979;55.720;37.606;2023-04-06T00:20:16;100433.72;;;10.45;49.72
74561;BME280;62979;55.720;37.606;2023-04-06T00:22:43;100435.59;;;10.37;49.77
74561;BME280;62979;55.720;37.606;2023-04-06T00:25:11;100435.75;;;10.19;50.25
74561;BME280;62979;55.720;37.606;2023-04-06T00:27:39;100440.97;;;10.20;50.23
74561;BME280;62979;55.720;37.606;2023-04-06T00:30:07;100434.03;;;10.19;50.15
74561;BME280;62979;55.720;37.606;2023-04-06T00:32:35;100439.22;;;10.22;50.20
74561;BME280;62979;55.720;37.606;2023-04-06T00:35:04;100440.91;;;10.28;50.30
74561;BME280;62979;55.720;37.606;2023-04-06T00:37:31;100437.41;;;10.31;50.26
74561;BME280;62979;55.720;37.606;2023-04-06T00:39:58;100437.41;;;10.31;50.15
74561;BME280;62979;55.720;37.606;2023-04-06T00:42:27;100440.13;;;10.18;50.33
74561;BME280;62979;55.720;37.606;2023-04-06T00:44:59;100437.50;;;10.17;50.42
74561;BME280;62979;55.720;37.606;2023-04-06T00:47:27;100431.47;;;10.13;50.41
74561;BME280;62979;55.720;37.606;2023-04-06T00:49:54;100435.09;;;10.00;50.77
74561;BME280;62979;55.720;37.606;2023-04-06T00:52:21;100432.56;;;9.91;51.16
74561;BME280;62979;55.720;37.606;2023-04-06T00:54:49;100435.19;;;9.91;51.15
74561;BME280;62979;55.720;37.606;2023-04-06T00:57:17;100436.00;;;9.97;51.00
74561;BME280;62979;55.720;37.606;2023-04-06T00:59:45;100435.09;;;9.98;51.07
74561;BME280;62979;55.720;37.606;2023-04-06T01:02:13;100447.22;;;10.04;50.92
74561;BME280;62979;55.720;37.606;2023-04-06T01:04:40;100432.44;;;10.03;50.81
74561;BME280;62979;55.720;37.606;2023-04-06T01:07:07;100433.25;;;10.08;50.78
74561;BME280;62979;55.720;37.606;2023-04-06T01:09:34;100431.50;;;10.07;50.69
74561;BME280;62979;55.720;37.606;2023-04-06T01:12:01;100429.78;;;10.07;50.76
74561;BME280;62979;55.720;37.606;2023-04-06T01:14:28;100429.03;;;9.98;50.98
74561;BME280;62979;55.720;37.606;2023-04-06T01:16:57;100430.78;;;9.97;50.96
74561;BME280;62979;55.720;37.606;2023-04-06T01:19:28;100424.78;;;9.84;51.39
74561;BME280;62979;55.720;37.606;2023-04-06T01:21:55;100428.28;;;9.83;51.29
74561;BME280;62979;55.720;37.606;2023-04-06T01:24:23;100435.22;;;9.88;51.27
74561;BME280;62979;55.720;37.606;2023-04-06T01:26:50;100426.66;;;9.73;51.39
74561;BME280;62979;55.720;37.606;2023-04-06T01:29:18;100439.72;;;9.70;51.83
74561;BME280;62979;55.720;37.606;2023-04-06T01:31:45;100411.09;;;9.59;51.69
74561;BME280;62979;55.720;37.606;2023-04-06T01:34:12;100421.44;;;9.73;51.77
74561;BME280;62979;55.720;37.606;2023-04-06T01:36:39;100433.56;;;9.77;51.72
74561;BME280;62979;55.720;37.606;2023-04-06T01:39:06;100429.22;;;9.78;51.79
74561;BME280;62979;55.720;37.606;2023-04-06T01:41:34;100424.00;;;9.75;51.59
74561;BME280;62979;55.720;37.606;2023-04-06T01:44:02;100418.00;;;9.68;51.70
74561;BME280;62979;55.720;37.606;2023-04-06T01:46:29;100424.94;;;9.69;51.56
74561;BME280;62979;55.720;37.606;2023-04-06T01:48:56;100423.22;;;9.68;51.73
74561;BME280;62979;55.720;37.606;2023-04-06T01:51:23;100424.97;;;9.66;51.78
74561;BME280;62979;55.720;37.606;2023-04-06T01:53:51;100414.56;;;9.60;51.70
74561;BME280;62979;55.720;37.606;2023-04-06T01:56:19;100425.88;;;9.63;51.84
74561;BME280;62979;55.720;37.606;2023-04-06T01:58:47;100416.44;;;9.49;51.90
74561;BME280;62979;55.720;37.606;2023-04-06T02:01:14;100431.38;;;9.27;52.58
74561;BME280;62979;55.720;37.606;2023-04-06T02:03:41;100427.81;;;9.35;52.56
74561;BME280;62979;55.720;37.606;2023-04-06T02:06:08;100421.72;;;9.39;52.54
74561;BME280;62979;55.720;37.606;2023-04-06T02:08:35;100418.19;;;9.43;52.30
74561;BME280;62979;55.720;37.606;2023-04-06T02:11:02;100423.41;;;9.45;52.21
74561;BME280;62979;55.720;37.606;2023-04-06T02:13:29;100429.50;;;9.42;52.43
74561;BME280;62979;55.720;37.606;2023-04-06T02:15:57;100431.25;;;9.40;52.26
74561;BME280;62979;55.720;37.606;2023-04-06T02:18:25;100434.81;;;9.32;52.41
74561;BME280;62979;55.720;37.606;2023-04-06T02:20:51;100435.75;;;9.23;52.65
74561;BME280;62979;55.720;37.606;2023-04-06T02:23:18;100435.75;;;9.25;52.77
74561;BME280;62979;55.720;37.606;2023-04-06T02:25:45;100429.63;;;9.24;52.57
74561;BME280;62979;55.720;37.606;2023-04-06T02:28:12;100439.19;;;9.28;52.73
74561;BME280;62979;55.720;37.606;2023-04-06T02:30:39;100442.63;;;9.33;52.62
74561;BME280;62979;55.720;37.606;2023-04-06T02:33:08;100445.28;;;9.32;52.52
74561;BME280;62979;55.720;37.606;2023-04-06T02:35:35;100438.34;;;9.23;52.70
74561;BME280;62979;55.720;37.606;2023-04-06T02:38:01;100445.31;;;9.27;52.75
74561;BME280;62979;55.720;37.606;2023-04-06T02:40:28;100455.00;;;9.08;52.89
74561;BME280;62979;55.720;37.606;2023-04-06T02:42:55;100451.50;;;9.11;53.08
74561;BME280;62979;55.720;37.606;2023-04-06T02:45:22;100454.97;;;9.07;52.85
74561;BME280;62979;55.720;37.606;2023-04-06T02:47:49;100454.09;;;9.11;52.89
74561;BME280;62979;55.720;37.606;2023-04-06T02:50:18;100453.22;;;9.13;52.70
74561;BME280;62979;55.720;37.606;2023-04-06T02:52:44;100464.50;;;9.17;52.89
74561;BME280;62979;55.720;37.606;2023-04-06T02:55:11;100442.84;;;9.03;52.68
74561;BME280;62979;55.720;37.606;2023-04-06T02:57:38;100468.88;;;9.15;52.54
74561;BME280;62979;55.720;37.606;2023-04-06T03:00:06;100467.19;;;9.08;52.77
74561;BME280;62979;55.720;37.606;2023-04-06T03:02:34;100469.91;;;8.83;53.25
74561;BME280;62979;55.720;37.606;2023-04-06T03:05:02;100469.06;;;8.78;53.40
74561;BME280;62979;55.720;37.606;2023-04-06T03:07:31;100470.78;;;8.82;53.52
74561;BME280;62979;55.720;37.606;2023-04-06T03:09:57;100467.28;;;8.86;53.37
74561;BME280;62979;55.720;37.606;2023-04-06T03:12:24;100477.66;;;8.98;53.00
74561;BME280;62979;55.720;37.606;2023-04-06T03:14:51;100474.13;;;9.04;52.71
74561;BME280;62979;55.720;37.606;2023-04-06T03:17:18;100483.66;;;9.11;52.59
74561;BME280;62979;55.720;37.606;2023-04-06T03:19:45;100472.38;;;9.08;52.49
74561;BME280;62979;55.720;37.606;2023-04-06T03:22:12;100482.00;;;9.03;52.70
74561;BME280;62979;55.720;37.606;2023-04-06T03:24:40;100475.03;;;9.05;52.58
74561;BME280;62979;55.720;37.606;2023-04-06T03:27:07;100480.19;;;9.11;52.33
74561;BME280;62979;55.720;37.606;2023-04-06T03:29:34;100474.94;;;9.14;52.37
74561;BME280;62979;55.720;37.606;2023-04-06T03:32:02;100478.63;;;8.77;52.98
74561;BME280;62979;55.720;37.606;2023-04-06T03:34:29;100485.50;;;8.95;52.97
74561;BME280;62979;55.720;37.606;2023-04-06T03:36:56;100488.09;;;8.98;52.95
74561;BME280;62979;55.720;37.606;2023-04-06T03:39:23;100488.06;;;9.05;52.77
74561;BME280;62979;55.720;37.606;2023-04-06T03:41:51;100490.63;;;9.11;52.41
74561;BME280;62979;55.720;37.606;2023-04-06T03:44:18;100490.59;;;9.17;52.19
74561;BME280;62979;55.720;37.606;2023-04-06T03:46:45;100495.81;;;9.18;52.07
74561;BME280;62979;55.720;37.606;2023-04-06T03:49:12;100502.78;;;9.19;51.97
74561;BME280;62979;55.720;37.606;2023-04-06T03:51:39;100496.75;;;9.10;52.19
74561;BME280;62979;55.720;37.606;2023-04-06T03:54:05;100505.44;;;9.06;52.22
74561;BME280;62979;55.720;37.606;2023-04-06T03:56:32;100496.72;;;9.11;51.96
74561;BME280;62979;55.720;37.606;2023-04-06T03:59:01;100510.56;;;9.21;52.04
74561;BME280;62979;55.720;37.606;2023-04-06T04:01:28;100508.06;;;9.06;52.07
74561;BME280;62979;55.720;37.606;2023-04-06T04:03:55;100510.72;;;8.98;52.80
74561;BME280;62979;55.720;37.606;2023-04-06T04:06:21;100521.78;;;9.34;54.84
74561;BME280;62979;55.720;37.606;2023-04-06T04:08:48;100519.25;;;9.29;52.36
74561;BME280;62979;55.720;37.606;2023-04-06T04:11:15;100520.97;;;9.30;52.85
74561;BME280;62979;55.720;37.606;2023-04-06T04:13:42;100507.00;;;9.39;52.86
74561;BME280;62979;55.720;37.606;2023-04-06T04:16:10;100519.09;;;9.54;52.87
74561;BME280;62979;55.720;37.606;2023-04-06T04:18:37;100514.69;;;9.57;52.46
74561;BME280;62979;55.720;37.606;2023-04-06T04:21:04;100519.06;;;9.57;52.41
74561;BME280;62979;55.720;37.606;2023-04-06T04:23:31;100522.44;;;9.70;51.66
74561;BME280;62979;55.720;37.606;2023-04-06T04:25:58;100522.38;;;9.77;51.37
74561;BME280;62979;55.720;37.606;2023-04-06T04:28:25;100526.53;;;10.03;51.80
74561;BME280;62979;55.720;37.606;2023-04-06T04:30:51;100525.44;;;10.28;51.69
74561;BME280;62979;55.720;37.606;2023-04-06T04:33:20;100522.25;;;9.90;50.01
74561;BME280;62979;55.720;37.606;2023-04-06T04:35:47;100531.75;;;10.01;51.02
74561;BME280;62979;55.720;37.606;2023-04-06T04:38:13;100529.22;;;9.95;50.25
74561;BME280;62979;55.720;37.606;2023-04-06T04:40:40;100529.16;;;10.00;49.89
74561;BME280;62979;55.720;37.606;2023-04-06T04:43:07;100526.59;;;9.95;50.85
74561;BME280;62979;55.720;37.606;2023-04-06T04:45:34;100522.91;;;10.16;51.44
74561;BME280;62979;55.720;37.606;2023-04-06T04:48:01;100521.78;;;10.43;50.79
74561;BME280;62979;55.720;37.606;2023-04-06T04:50:31;100525.44;;;10.24;48.86
74561;BME280;62979;55.720;37.606;2023-04-06T04:52:58;100532.34;;;10.36;49.72
74561;BME280;62979;55.720;37.606;2023-04-06T04:55:25;100528.06;;;10.24;50.05
74561;BME280;62979;55.720;37.606;2023-04-06T04:57:52;100531.72;;;10.06;49.31
74561;BME280;62979;55.720;37.606;2023-04-06T05:00:19;100529.81;;;10.23;50.45
74561;BME280;62979;55.720;37.606;2023-04-06T05:02:46;100529.75;;;10.31;49.70
74561;BME280;62979;55.720;37.606;2023-04-06T05:05:13;100513.84;;;10.53;49.33
74561;BME280;62979;55.720;37.606;2023-04-06T05:07:43;100529.72;;;10.37;49.00
74561;BME280;62979;55.720;37.606;2023-04-06T05:10:10;100527.19;;;10.30;49.31
74561;BME280;62979;55.720;37.606;2023-04-06T05:12:37;100532.38;;;10.33;51.31
74561;BME280;62979;55.720;37.606;2023-04-06T05:15:05;100526.84;;;10.60;50.38
74561;BME280;62979;55.720;37.606;2023-04-06T05:17:33;100513.50;;;10.83;50.50
74561;BME280;62979;55.720;37.606;2023-04-06T05:20:00;100528.03;;;11.07;49.80
74561;BME280;62979;55.720;37.606;2023-04-06T05:22:27;100532.94;;;11.29;49.83
74561;BME280;62979;55.720;37.606;2023-04-06T05:24:56;100520.69;;;11.34;49.09
74561;BME280;62979;55.720;37.606;2023-04-06T05:27:22;100534.41;;;11.51;49.77
74561;BME280;62979;55.720;37.606;2023-04-06T05:29:51;100527.16;;;11.67;48.97
74561;BME280;62979;55.720;37.606;2023-04-06T05:32:18;100525.81;;;11.40;46.73
74561;BME280;62979;55.720;37.606;2023-04-06T05:34:47;100525.38;;;11.09;48.59
74561;BME280;62979;55.720;37.606;2023-04-06T05:37:15;100524.81;;;10.84;47.69
74561;BME280;62979;55.720;37.606;2023-04-06T05:39:42;100505.16;;;10.52;48.38
74561;BME280;62979;55.720;37.606;2023-04-06T05:42:10;100533.69;;;10.74;48.94
74561;BME280;62979;55.720;37.606;2023-04-06T05:44:37;100536.00;;;10.97;48.42
74561;BME280;62979;55.720;37.606;2023-04-06T05:47:04;100526.69;;;10.76;48.55
74561;BME280;62979;55.720;37.606;2023-04-06T05:49:31;100533.38;;;10.98;49.71
74561;BME280;62979;55.720;37.606;2023-04-06T05:51:58;100532.94;;;11.32;48.70
74561;BME280;62979;55.720;37.606;2023-04-06T05:54:25;100531.97;;;11.39;47.80
74561;BME280;62979;55.720;37.606;2023-04-06T05:56:53;100526.38;;;11.61;48.10
74561;BME280;62979;55.720;37.606;2023-04-06T05:59:21;100533.41;;;11.59;46.60
74561;BME280;62979;55.720;37.606;2023-04-06T06:01:49;100534.06;;;11.73;47.44
74561;BME280;62979;55.720;37.606;2023-04-06T06:04:15;100532.97;;;11.85;46.25
74561;BME280;62979;55.720;37.606;2023-04-06T06:06:42;100521.66;;;11.84;47.36
74561;BME280;62979;55.720;37.606;2023-04-06T06:09:09;100533.28;;;12.22;47.37
74561;BME280;62979;55.720;37.606;2023-04-06T06:11:36;100535.75;;;12.30;45.96
74561;BME280;62979;55.720;37.606;2023-04-06T06:14:03;100522.44;;;12.40;46.57
74561;BME280;62979;55.720;37.606;2023-04-06T06:16:32;100531.31;;;12.33;44.48
74561;BME280;62979;55.720;37.606;2023-04-06T06:18:59;100529.69;;;12.26;45.32
74561;BME280;62979;55.720;37.606;2023-04-06T06:21:28;100536.69;;;12.27;44.67
74561;BME280;62979;55.720;37.606;2023-04-06T06:23:56;100525.00;;;11.95;44.95
74561;BME280;62979;55.720;37.606;2023-04-06T06:26:22;100520.56;;;11.99;45.47
74561;BME280;62979;55.720;37.606;2023-04-06T06:28:49;100520.38;;;12.10;44.98
74561;BME280;62979;55.720;37.606;2023-04-06T06:31:16;100520.16;;;12.22;45.40
74561;BME280;62979;55.720;37.606;2023-04-06T06:33:47;100506.94;;;12.28;45.35
74561;BME280;62979;55.720;37.606;2023-04-06T06:36:15;100519.81;;;12.40;44.61
74561;BME280;62979;55.720;37.606;2023-04-06T06:38:42;100512.72;;;12.46;44.72
74561;BME280;62979;55.720;37.606;2023-04-06T06:41:09;100517.03;;;12.50;44.79
74561;BME280;62979;55.720;37.606;2023-04-06T06:43:37;100517.03;;;12.48;44.69
74561;BME280;62979;55.720;37.606;2023-04-06T06:46:06;100517.72;;;12.59;45.10
74561;BME280;62979;55.720;37.606;2023-04-06T06:48:33;100513.06;;;12.72;44.21
74561;BME280;62979;55.720;37.606;2023-04-06T06:51:01;100514.59;;;12.82;44.25
74561;BME280;62979;55.720;37.606;2023-04-06T06:53:29;100509.16;;;12.93;43.98
74561;BME280;62979;55.720;37.606;2023-04-06T06:55:55;100511.81;;;12.92;43.80
74561;BME280;62979;55.720;37.606;2023-04-06T06:58:22;100511.22;;;12.77;43.08
74561;BME280;62979;55.720;37.606;2023-04-06T07:00:49;100511.03;;;12.87;43.71
74561;BME280;62979;55.720;37.606;2023-04-06T07:03:17;100510.00;;;12.94;43.77
74561;BME280;62979;55.720;37.606;2023-04-06T07:05:46;100509.81;;;13.03;43.52
74561;BME280;62979;55.720;37.606;2023-04-06T07:08:19;100504.47;;;13.07;43.25
74561;BME280;62979;55.720;37.606;2023-04-06T07:10:46;100507.94;;;13.10;43.14
74561;BME280;62979;55.720;37.606;2023-04-06T07:13:14;100510.94;;;12.93;42.86
74561;BME280;62979;55.720;37.606;2023-04-06T07:15:46;100503.84;;;12.95;43.38
74561;BME280;62979;55.720;37.606;2023-04-06T07:18:13;100500.88;;;13.12;43.53
74561;BME280;62979;55.720;37.606;2023-04-06T07:20:40;100510.16;;;13.30;42.76
74561;BME280;62979;55.720;37.606;2023-04-06T07:23:07;100505.66;;;13.35;42.01
74561;BME280;62979;55.720;37.606;2023-04-06T07:25:35;100493.28;;;13.40;41.93
74561;BME280;62979;55.720;37.606;2023-04-06T07:28:02;100513.34;;;13.42;41.72
74561;BME280;62979;55.720;37.606;2023-04-06T07:30:30;100506.06;;;13.15;41.63
74561;BME280;62979;55.720;37.606;2023-04-06T07:32:57;100502.84;;;13.42;42.55
74561;BME280;62979;55.720;37.606;2023-04-06T07:35:26;100506.75;;;13.63;42.09
74561;BME280;62979;55.720;37.606;2023-04-06T07:37:55;100498.84;;;13.63;41.69
74561;BME280;62979;55.720;37.606;2023-04-06T07:40:22;100505.81;;;13.64;40.96
74561;BME280;62979;55.720;37.606;2023-04-06T07:42:50;100502.91;;;13.77;41.46
74561;BME280;62979;55.720;37.606;2023-04-06T07:45:17;100513.13;;;13.87;40.49
74561;BME280;62979;55.720;37.606;2023-04-06T07:47:44;100499.66;;;13.65;40.61
74561;BME280;62979;55.720;37.606;2023-04-06T07:50:12;100497.63;;;13.78;41.42
74561;BME280;62979;55.720;37.606;2023-04-06T07:52:39;100508.69;;;13.91;40.96
74561;BME280;62979;55.720;37.606;2023-04-06T07:55:06;100499.63;;;14.03;41.64
74561;BME280;62979;55.720;37.606;2023-04-06T07:57:33;100505.38;;;14.17;41.36
74561;BME280;62979;55.720;37.606;2023-04-06T08:00:02;100513.06;;;14.25;40.45
74561;BME280;62979;55.720;37.606;2023-04-06T08:02:31;100505.91;;;14.30;40.44
74561;BME280;62979;55.720;37.606;2023-04-06T08:04:58;100505.59;;;14.42;40.50
74561;BME280;62979;55.720;37.606;2023-04-06T08:07:25;100506.19;;;14.53;39.97
74561;BME280;62979;55.720;37.606;2023-04-06T08:09:52;100504.13;;;14.65;40.52
74561;BME280;62979;55.720;37.606;2023-04-06T08:12:19;100511.50;;;14.83;39.66
74561;BME280;62979;55.720;37.606;2023-04-06T08:14:46;100497.03;;;14.67;38.94
74561;BME280;62979;55.720;37.606;2023-04-06T08:17:14;100498.22;;;14.86;38.90
74561;BME280;62979;55.720;37.606;2023-04-06T08:19:42;100507.41;;;15.03;38.41
74561;BME280;62979;55.720;37.606;2023-04-06T08:22:10;100499.19;;;15.13;37.95
74561;BME280;62979;55.720;37.606;2023-04-06T08:24:37;100508.25;;;15.05;37.85
74561;BME280;62979;55.720;37.606;2023-04-06T08:27:04;100494.28;;;15.01;37.70
74561;BME280;62979;55.720;37.606;2023-04-06T08:29:31;100504.78;;;15.31;37.69
74561;BME280;62979;55.720;37.606;2023-04-06T08:31:58;100513.44;;;15.62;38.18
74561;BME280;62979;55.720;37.606;2023-04-06T08:34:33;100500.03;;;15.70;38.56
74561;BME280;62979;55.720;37.606;2023-04-06T08:37:00;100492.88;;;15.75;37.38
74561;BME280;62979;55.720;37.606;2023-04-06T08:39:27;100500.88;;;15.99;37.51
74561;BME280;62979;55.720;37.606;2023-04-06T08:41:56;100502.25;;;16.09;37.69
74561;BME280;62979;55.720;37.606;2023-04-06T08:44:25;100501.81;;;15.96;35.45
74561;BME280;62979;55.720;37.606;2023-04-06T08:46:52;100502.69;;;15.70;36.58
74561;BME280;62979;55.720;37.606;2023-04-06T08:49:21;100495.72;;;15.68;36.80
74561;BME280;62979;55.720;37.606;2023-04-06T08:51:49;100495.28;;;15.81;36.50
74561;BME280;62979;55.720;37.606;2023-04-06T08:54:16;100503.22;;;16.07;35.75
74561;BME280;62979;55.720;37.606;2023-04-06T08:56:43;100501.47;;;16.07;36.42
74561;BME280;62979;55.720;37.606;2023-04-06T08:59:11;100476.81;;;16.08;36.67
74561;BME280;62979;55.720;37.606;2023-04-06T09:01:39;100480.50;;;16.53;37.80
74561;BME280;62979;55.720;37.606;2023-04-06T09:04:09;100487.84;;;16.93;36.18
74561;BME280;62979;55.720;37.606;2023-04-06T09:06:37;100483.47;;;16.92;35.28
74561;BME280;62979;55.720;37.606;2023-04-06T09:09:07;100486.22;;;17.13;35.33
74561;BME280;62979;55.720;37.606;2023-04-06T09:11:45;100483.47;;;16.92;33.99
74561;BME280;62979;55.720;37.606;2023-04-06T09:14:12;100478.56;;;16.83;34.72
74561;BME280;62979;55.720;37.606;2023-04-06T09:16:40;100491.38;;;16.92;34.60
74561;BME280;62979;55.720;37.606;2023-04-06T09:19:08;100486.59;;;17.25;35.45
74561;BME280;62979;55.720;37.606;2023-04-06T09:21:36;100477.84;;;17.01;33.84
74561;BME280;62979;55.720;37.606;2023-04-06T09:24:03;100486.91;;;17.18;33.88
74561;BME280;62979;55.720;37.606;2023-04-06T09:26:32;100475.88;;;17.06;34.21
74561;BME280;62979;55.720;37.606;2023-04-06T09:29:01;100477.03;;;17.21;33.53
74561;BME280;62979;55.720;37.606;2023-04-06T09:31:30;100483.41;;;17.39;34.70
74561;BME280;62979;55.720;37.606;2023-04-06T09:33:59;100483.81;;;17.50;32.55
74561;BME280;62979;55.720;37.606;2023-04-06T09:36:30;100477.53;;;17.75;31.82
74561;BME280;62979;55.720;37.606;2023-04-06T09:38:59;100481.03;;;17.98;32.04
74561;BME280;62979;55.720;37.606;2023-04-06T09:41:29;100468.53;;;18.22;31.73
74561;BME280;62979;55.720;37.606;2023-04-06T09:44:06;100481.91;;;18.39;32.91
74561;BME280;62979;55.720;37.606;2023-04-06T09:46:36;100458.31;;;18.33;31.66
74561;BME280;62979;55.720;37.606;2023-04-06T09:49:05;100482.84;;;18.57;31.37
74561;BME280;62979;55.720;37.606;2023-04-06T09:51:36;100464.38;;;18.95;31.12
74561;BME280;62979;55.720;37.606;2023-04-06T09:54:05;100472.19;;;19.53;30.70
74561;BME280;62979;55.720;37.606;2023-04-06T09:56:39;100466.78;;;19.74;28.31
74561;BME280;62979;55.720;37.606;2023-04-06T09:59:17;100462.91;;;20.14;29.23
74561;BME280;62979;55.720;37.606;2023-04-06T10:01:51;100449.84;;;20.44;28.92
74561;BME280;62979;55.720;37.606;2023-04-06T10:04:27;100470.88;;;20.98;27.51
74561;BME280;62979;55.720;37.606;2023-04-06T10:07:05;100469.25;;;21.27;27.52
74561;BME280;62979;55.720;37.606;2023-04-06T10:09:35;100467.09;;;21.18;26.76
74561;BME280;62979;55.720;37.606;2023-04-06T10:12:04;100443.44;;;20.98;26.68
74561;BME280;62979;55.720;37.606;2023-04-06T10:14:34;100462.38;;;21.55;26.64
74561;BME280;62979;55.720;37.606;2023-04-06T10:17:02;100462.22;;;21.42;26.67
74561;BME280;62979;55.720;37.606;2023-04-06T10:19:39;100459.91;;;21.52;25.54
74561;BME280;62979;55.720;37.606;2023-04-06T10:22:18;100455.25;;;21.55;25.75
74561;BME280;62979;55.720;37.606;2023-04-06T10:24:52;100470.63;;;22.11;25.50
74561;BME280;62979;55.720;37.606;2023-04-06T10:27:27;100457.19;;;22.85;24.37
74561;BME280;62979;55.720;37.606;2023-04-06T10:30:01;100471.84;;;23.07;23.37
74561;BME280;62979;55.720;37.606;2023-04-06T10:32:34;100473.78;;;23.32;23.89
74561;BME280;62979;55.720;37.606;2023-04-06T10:35:09;100467.06;;;23.66;23.15
74561;BME280;62979;55.720;37.606;2023-04-06T10:37:49;100462.63;;;23.80;22.60
74561;BME280;62979;55.720;37.606;2023-04-06T10:40:19;100455.66;;;23.37;23.03
74561;BME280;62979;55.720;37.606;2023-04-06T10:42:48;100458.63;;;24.00;22.73
74561;BME280;62979;55.720;37.606;2023-04-06T10:45:24;100443.91;;;24.20;21.90
74561;BME280;62979;55.720;37.606;2023-04-06T10:47:53;100449.00;;;24.23;22.66
74561;BME280;62979;55.720;37.606;2023-04-06T10:50:21;100464.44;;;24.70;21.45
74561;BME280;62979;55.720;37.606;2023-04-06T10:52:58;100438.19;;;24.11;21.75
74561;BME280;62979;55.720;37.606;2023-04-06T10:55:26;100452.88;;;24.44;21.72
74561;BME280;62979;55.720;37.606;2023-04-06T10:57:54;100459.47;;;24.90;21.28
74561;BME280;62979;55.720;37.606;2023-04-06T11:00:23;100450.13;;;25.56;21.21
74561;BME280;62979;55.720;37.606;2023-04-06T11:02:50;100458.84;;;26.07;20.33
74561;BME280;62979;55.720;37.606;2023-04-06T11:05:17;100455.75;;;26.46;19.83
74561;BME280;62979;55.720;37.606;2023-04-06T11:07:44;100451.13;;;26.48;19.22
74561;BME280;62979;55.720;37.606;2023-04-06T11:10:11;100459.75;;;26.41;19.48
74561;BME280;62979;55.720;37.606;2023-04-06T11:12:39;100453.53;;;26.97;19.49
74561;BME280;62979;55.720;37.606;2023-04-06T11:15:07;100466.22;;;27.06;19.11
74561;BME280;62979;55.720;37.606;2023-04-06T11:17:37;100465.38;;;26.38;19.06
74561;BME280;62979;55.720;37.606;2023-04-06T11:20:09;100455.16;;;26.77;20.18
74561;BME280;62979;55.720;37.606;2023-04-06T11:22:36;100452.63;;;26.75;19.07
74561;BME280;62979;55.720;37.606;2023-04-06T11:25:14;100460.34;;;27.35;18.67
74561;BME280;62979;55.720;37.606;2023-04-06T11:27:43;100442.63;;;28.17;17.29
74561;BME280;62979;55.720;37.606;2023-04-06T11:30:11;100458.31;;;28.64;17.69
74561;BME280;62979;55.720;37.606;2023-04-06T11:32:41;100436.38;;;29.19;16.94
74561;BME280;62979;55.720;37.606;2023-04-06T11:35:19;100452.09;;;28.64;16.83
74561;BME280;62979;55.720;37.606;2023-04-06T11:37:48;100447.94;;;28.29;17.34
74561;BME280;62979;55.720;37.606;2023-04-06T11:40:15;100447.41;;;28.66;17.23
74561;BME280;62979;55.720;37.606;2023-04-06T11:42:52;100436.72;;;28.85;17.45
74561;BME280;62979;55.720;37.606;2023-04-06T11:45:20;100447.59;;;29.14;16.63
74561;BME280;62979;55.720;37.606;2023-04-06T11:47:57;100435.94;;;29.23;16.71
74561;BME280;62979;55.720;37.606;2023-04-06T11:50:24;100442.78;;;29.47;16.26
74561;BME280;62979;55.720;37.606;2023-04-06T11:52:58;100431.72;;;29.50;16.90
74561;BME280;62979;55.720;37.606;2023-04-06T11:55:26;100436.72;;;29.74;16.37
74561;BME280;62979;55.720;37.606;2023-04-06T11:57:54;100437.81;;;30.01;16.84
74561;BME280;62979;55.720;37.606;2023-04-06T12:00:21;100444.47;;;29.97;16.39
74561;BME280;62979;55.720;37.606;2023-04-06T12:02:48;100408.38;;;30.17;15.92
74561;BME280;62979;55.720;37.606;2023-04-06T12:05:17;100435.88;;;29.74;16.64
74561;BME280;62979;55.720;37.606;2023-04-06T12:07:44;100433.69;;;29.97;16.42
74561;BME280;62979;55.720;37.606;2023-04-06T12:10:11;100441.06;;;30.14;15.63
74561;BME280;62979;55.720;37.606;2023-04-06T12:12:39;100431.69;;;30.08;16.22
74561;BME280;62979;55.720;37.606;2023-04-06T12:15:06;100435.78;;;30.22;16.37
74561;BME280;62979;55.720;37.606;2023-04-06T12:17:34;100408.13;;;30.48;15.81
74561;BME280;62979;55.720;37.606;2023-04-06T12:20:02;100426.16;;;30.57;15.65
74561;BME280;62979;55.720;37.606;2023-04-06T12:22:30;100405.84;;;30.81;15.09
74561;BME280;62979;55.720;37.606;2023-04-06T12:24:57;100423.56;;;30.65;16.21
74561;BME280;62979;55.720;37.606;2023-04-06T12:27:24;100424.31;;;31.31;15.58
74561;BME280;62979;55.720;37.606;2023-04-06T12:29:51;100426.03;;;31.32;15.13
74561;BME280;62979;55.720;37.606;2023-04-06T12:32:19;100434.69;;;31.53;14.99
74561;BME280;62979;55.720;37.606;2023-04-06T12:34:46;100422.19;;;31.70;14.48
74561;BME280;62979;55.720;37.606;2023-04-06T12:37:12;100422.91;;;31.98;14.45
74561;BME280;62979;55.720;37.606;2023-04-06T12:39:41;100412.41;;;32.22;14.68
74561;BME280;62979;55.720;37.606;2023-04-06T12:42:09;100426.72;;;32.14;14.55
74561;BME280;62979;55.720;37.606;2023-04-06T12:44:37;100414.34;;;32.37;13.57
74561;BME280;62979;55.720;37.606;2023-04-06T12:47:04;100428.00;;;32.02;14.38